Date,TemperatureHighF,TemperatureAvgF,TemperatureLowF,DewpointHighF,DewpointAvgF,DewpointLowF,HumidityHigh,HumidityAvg,HumidityLow,PressureMaxIn,PressureMinIn,WindSpeedMaxMPH,WindSpeedAvgMPH,GustSpeedMaxMPH,PrecipitationSumIn
2013-6-1,69,59,51,59,53,44,89,80,69,29.87,29.47,20,7,28,0.06
2013-6-2,64,55,46,48,42,40,89,64,43,30.03,29.88,13,5,20,0.06
2013-6-3,67,58,44,48,45,40,95,63,40,30.02,29.86,12,3,20,0.00
2013-6-4,61,58,54,53,50,47,91,75,60,30.01,29.92,16,8,22,0.00
2013-6-5,65,56,53,58,53,49,96,89,73,29.99,29.87,16,4,26,0.02
2013-6-6,56,53,50,54,50,48,95,92,88,29.99,29.91,9,3,13,0.02
2013-6-7,64,57,52,53,51,50,95,82,63,30.01,29.86,5,1,8,0.00
2013-6-8,69,62,55,55,53,51,91,74,54,29.86,29.80,10,4,14,0.00
2013-6-9,67,60,56,63,57,54,95,90,78,29.82,29.68,20,11,29,0.15
2013-6-10,72,64,59,63,60,58,97,88,70,29.79,29.73,8,2,12,0.07
2013-6-11,77,66,56,69,63,55,97,89,75,29.83,29.71,8,2,15,0.01
2013-6-12,70,66,61,65,63,55,96,89,78,29.85,29.70,11,6,17,2.13
2013-6-13,76,67,57,59,55,50,82,65,47,30.03,29.85,10,4,16,0.01
2013-6-14,77,68,56,62,58,52,88,70,57,30.00,29.79,16,7,25,0.03
2013-6-15,75,69,63,68,64,60,95,85,72,29.83,29.77,12,4,21,0.34
2013-6-16,84,69,58,62,56,47,96,67,30,29.86,29.78,16,5,25,0.01
2013-6-17,79,70,60,59,56,52,85,63,42,29.92,29.80,14,6,21,0.01
2013-6-18,74,66,58,61,56,52,81,71,53,30.02,29.92,9,4,14,0.00
2013-6-19,83,72,60,64,58,55,83,64,41,29.99,29.85,9,4,18,0.00
2013-6-20,88,76,70,67,63,59,76,65,42,29.91,29.82,12,6,22,0.00
2013-6-22,79,75,67,71,69,64,91,81,74,29.87,29.76,8,3,11,0.73
2013-6-23,80,74,68,70,67,65,96,81,61,29.80,29.60,18,9,26,0.36
2013-6-24,79,71,63,71,66,62,96,86,71,29.83,29.71,13,3,21,0.01
2013-6-25,83,74,65,75,69,62,93,83,71,29.75,29.62,11,5,17,0.00
2013-6-26,85,77,70,75,70,64,96,80,56,29.73,29.56,16,6,23,0.00
2013-6-27,83,76,67,67,62,55,89,65,38,29.74,29.70,24,9,37,0.00
2013-6-28,76,71,65,62,59,57,78,67,58,29.73,29.67,25,15,35,0.00
2013-6-29,75,67,61,62,58,51,94,73,45,29.90,29.67,9,5,19,0.38
2013-6-30,79,68,55,59,52,46,87,61,36,30.04,29.90,8,2,15,0.05